sensor_id;sensor_type;location;lat;lon;timestamp;P1;durP1;ratioP1;P2;durP2;ratioP2
24157;SDS011;12316;50.904;4.200;2024-03-22T00:02:02;51.15;;;34.70;;
24157;SDS011;12316;50.904;4.200;2024-03-22T00:04:27;46.95;;;33.03;;
24157;SDS011;12316;50.904;4.200;2024-03-22T00:06:53;48.58;;;32.65;;
24157;SDS011;12316;50.904;4.200;2024-03-22T00:09:19;49.83;;;33.22;;
24157;SDS011;12316;50.904;4.200;2024-03-22T00:11:46;49.33;;;32.70;;
24157;SDS011;12316;50.904;4.200;2024-03-22T00:14:11;48.47;;;33.20;;
24157;SDS011;12316;50.904;4.200;2024-03-22T00:16:37;52.95;;;34.55;;
24157;SDS011;12316;50.904;4.200;2024-03-22T00:19:04;53.47;;;34.83;;
24157;SDS011;12316;50.904;4.200;2024-03-22T00:21:30;48.83;;;33.13;;
24157;SDS011;12316;50.904;4.200;2024-03-22T00:23:56;48.95;;;33.22;;
24157;SDS011;12316;50.904;4.200;2024-03-22T00:26:23;48.58;;;33.53;;
24157;SDS011;12316;50.904;4.200;2024-03-22T00:28:48;46.70;;;31.25;;
24157;SDS011;12316;50.904;4.200;2024-03-22T00:31:14;46.38;;;32.03;;
24157;SDS011;12316;50.904;4.200;2024-03-22T00:33:41;46.85;;;31.55;;
24157;SDS011;12316;50.904;4.200;2024-03-22T00:36:06;44.35;;;32.17;;
24157;SDS011;12316;50.904;4.200;2024-03-22T00:38:33;47.45;;;31.48;;
24157;SDS011;12316;50.904;4.200;2024-03-22T00:40:59;49.00;;;32.08;;
24157;SDS011;12316;50.904;4.200;2024-03-22T00:43:25;48.17;;;32.42;;
24157;SDS011;12316;50.904;4.200;2024-03-22T00:45:51;46.92;;;31.25;;
24157;SDS011;12316;50.904;4.200;2024-03-22T00:48:17;49.22;;;30.55;;
24157;SDS011;12316;50.904;4.200;2024-03-22T00:50:43;48.10;;;31.58;;
24157;SDS011;12316;50.904;4.200;2024-03-22T00:53:09;45.53;;;29.60;;
24157;SDS011;12316;50.904;4.200;2024-03-22T00:55:35;44.83;;;29.85;;
24157;SDS011;12316;50.904;4.200;2024-03-22T00:58:00;44.15;;;30.20;;
24157;SDS011;12316;50.904;4.200;2024-03-22T01:00:28;43.03;;;29.27;;
24157;SDS011;12316;50.904;4.200;2024-03-22T01:02:54;45.13;;;30.35;;
24157;SDS011;12316;50.904;4.200;2024-03-22T01:05:20;43.65;;;30.52;;
24157;SDS011;12316;50.904;4.200;2024-03-22T01:07:45;43.90;;;30.58;;
24157;SDS011;12316;50.904;4.200;2024-03-22T01:10:11;49.30;;;32.28;;
24157;SDS011;12316;50.904;4.200;2024-03-22T01:12:37;46.22;;;31.38;;
24157;SDS011;12316;50.904;4.200;2024-03-22T01:15:07;52.45;;;31.38;;
24157;SDS011;12316;50.904;4.200;2024-03-22T01:17:33;45.50;;;31.27;;
24157;SDS011;12316;50.904;4.200;2024-03-22T01:19:59;48.67;;;32.88;;
24157;SDS011;12316;50.904;4.200;2024-03-22T01:22:25;48.15;;;32.28;;
24157;SDS011;12316;50.904;4.200;2024-03-22T01:24:51;49.70;;;32.70;;
24157;SDS011;12316;50.904;4.200;2024-03-22T01:27:17;50.00;;;33.38;;
24157;SDS011;12316;50.904;4.200;2024-03-22T01:29:42;47.60;;;31.75;;
24157;SDS011;12316;50.904;4.200;2024-03-22T01:32:09;47.83;;;32.17;;
24157;SDS011;12316;50.904;4.200;2024-03-22T01:34:35;50.63;;;31.48;;
24157;SDS011;12316;50.904;4.200;2024-03-22T01:37:01;48.65;;;31.75;;
24157;SDS011;12316;50.904;4.200;2024-03-22T01:39:27;47.08;;;31.73;;
24157;SDS011;12316;50.904;4.200;2024-03-22T01:41:53;43.80;;;30.00;;
24157;SDS011;12316;50.904;4.200;2024-03-22T01:44:19;45.13;;;30.55;;
24157;SDS011;12316;50.904;4.200;2024-03-22T01:49:17;47.80;;;31.25;;
24157;SDS011;12316;50.904;4.200;2024-03-22T01:51:43;47.08;;;31.48;;
24157;SDS011;12316;50.904;4.200;2024-03-22T01:54:09;52.00;;;31.55;;
24157;SDS011;12316;50.904;4.200;2024-03-22T01:56:38;48.53;;;30.48;;
24157;SDS011;12316;50.904;4.200;2024-03-22T01:59:05;47.90;;;31.50;;
24157;SDS011;12316;50.904;4.200;2024-03-22T02:01:31;47.30;;;31.00;;
24157;SDS011;12316;50.904;4.200;2024-03-22T02:03:58;48.95;;;31.27;;
24157;SDS011;12316;50.904;4.200;2024-03-22T02:06:24;49.72;;;31.48;;
24157;SDS011;12316;50.904;4.200;2024-03-22T02:08:50;50.67;;;31.85;;
24157;SDS011;12316;50.904;4.200;2024-03-22T02:11:16;51.92;;;32.72;;
24157;SDS011;12316;50.904;4.200;2024-03-22T02:13:41;50.00;;;31.58;;
24157;SDS011;12316;50.904;4.200;2024-03-22T02:16:10;49.63;;;32.20;;
24157;SDS011;12316;50.904;4.200;2024-03-22T02:18:36;49.92;;;31.30;;
24157;SDS011;12316;50.904;4.200;2024-03-22T02:21:03;47.85;;;30.67;;
24157;SDS011;12316;50.904;4.200;2024-03-22T02:25:58;44.60;;;29.75;;
24157;SDS011;12316;50.904;4.200;2024-03-22T02:28:25;47.55;;;29.70;;
24157;SDS011;12316;50.904;4.200;2024-03-22T02:30:51;43.10;;;28.60;;
24157;SDS011;12316;50.904;4.200;2024-03-22T02:33:17;50.33;;;29.55;;
24157;SDS011;12316;50.904;4.200;2024-03-22T02:35:43;41.50;;;27.88;;
24157;SDS011;12316;50.904;4.200;2024-03-22T02:38:12;48.80;;;29.15;;
24157;SDS011;12316;50.904;4.200;2024-03-22T02:40:37;44.88;;;28.65;;
24157;SDS011;12316;50.904;4.200;2024-03-22T02:43:03;45.03;;;28.38;;
24157;SDS011;12316;50.904;4.200;2024-03-22T02:45:29;44.15;;;28.02;;
24157;SDS011;12316;50.904;4.200;2024-03-22T02:47:56;45.97;;;26.83;;
24157;SDS011;12316;50.904;4.200;2024-03-22T02:50:21;43.47;;;26.23;;
24157;SDS011;12316;50.904;4.200;2024-03-22T02:52:50;39.58;;;25.15;;
24157;SDS011;12316;50.904;4.200;2024-03-22T02:55:16;40.08;;;25.88;;
24157;SDS011;12316;50.904;4.200;2024-03-22T02:57:42;41.95;;;25.63;;
24157;SDS011;12316;50.904;4.200;2024-03-22T03:00:08;35.92;;;23.70;;
24157;SDS011;12316;50.904;4.200;2024-03-22T03:02:34;39.97;;;24.45;;
24157;SDS011;12316;50.904;4.200;2024-03-22T03:05:00;36.60;;;23.85;;
24157;SDS011;12316;50.904;4.200;2024-03-22T03:07:26;38.65;;;23.95;;
24157;SDS011;12316;50.904;4.200;2024-03-22T03:09:52;38.60;;;23.60;;
24157;SDS011;12316;50.904;4.200;2024-03-22T03:12:18;38.80;;;23.52;;
24157;SDS011;12316;50.904;4.200;2024-03-22T03:14:44;37.40;;;22.42;;
24157;SDS011;12316;50.904;4.200;2024-03-22T03:17:10;41.45;;;23.33;;
24157;SDS011;12316;50.904;4.200;2024-03-22T03:19:36;38.25;;;23.90;;
24157;SDS011;12316;50.904;4.200;2024-03-22T03:22:02;35.92;;;22.92;;
24157;SDS011;12316;50.904;4.200;2024-03-22T03:24:28;38.60;;;21.63;;
24157;SDS011;12316;50.904;4.200;2024-03-22T03:26:53;36.75;;;22.90;;
24157;SDS011;12316;50.904;4.200;2024-03-22T03:29:19;35.75;;;20.88;;
24157;SDS011;12316;50.904;4.200;2024-03-22T03:31:45;35.75;;;21.77;;
24157;SDS011;12316;50.904;4.200;2024-03-22T03:34:11;34.33;;;20.77;;
24157;SDS011;12316;50.904;4.200;2024-03-22T03:36:36;33.15;;;20.80;;
24157;SDS011;12316;50.904;4.200;2024-03-22T03:39:03;35.53;;;20.15;;
24157;SDS011;12316;50.904;4.200;2024-03-22T03:41:30;34.80;;;21.10;;
24157;SDS011;12316;50.904;4.200;2024-03-22T03:43:56;33.78;;;20.60;;
24157;SDS011;12316;50.904;4.200;2024-03-22T03:46:22;34.42;;;20.50;;
24157;SDS011;12316;50.904;4.200;2024-03-22T03:48:48;32.83;;;19.10;;
24157;SDS011;12316;50.904;4.200;2024-03-22T03:51:13;31.88;;;19.83;;
24157;SDS011;12316;50.904;4.200;2024-03-22T03:53:40;31.42;;;19.20;;
24157;SDS011;12316;50.904;4.200;2024-03-22T03:56:07;31.15;;;19.30;;
24157;SDS011;12316;50.904;4.200;2024-03-22T03:58:32;33.85;;;20.05;;
24157;SDS011;12316;50.904;4.200;2024-03-22T04:00:58;30.77;;;18.27;;
24157;SDS011;12316;50.904;4.200;2024-03-22T04:03:24;29.52;;;18.30;;
24157;SDS011;12316;50.904;4.200;2024-03-22T04:05:56;32.88;;;18.92;;
24157;SDS011;12316;50.904;4.200;2024-03-22T04:10:52;33.50;;;20.10;;
24157;SDS011;12316;50.904;4.200;2024-03-22T04:13:21;36.83;;;21.05;;
24157;SDS011;12316;50.904;4.200;2024-03-22T04:15:46;36.17;;;21.10;;
24157;SDS011;12316;50.904;4.200;2024-03-22T04:18:12;37.20;;;20.77;;
24157;SDS011;12316;50.904;4.200;2024-03-22T04:20:38;36.03;;;21.30;;
24157;SDS011;12316;50.904;4.200;2024-03-22T04:23:03;35.63;;;21.25;;
24157;SDS011;12316;50.904;4.200;2024-03-22T04:25:29;32.15;;;19.63;;
24157;SDS011;12316;50.904;4.200;2024-03-22T04:27:55;31.25;;;18.50;;
24157;SDS011;12316;50.904;4.200;2024-03-22T04:30:20;28.10;;;18.10;;
24157;SDS011;12316;50.904;4.200;2024-03-22T04:32:47;30.33;;;19.45;;
24157;SDS011;12316;50.904;4.200;2024-03-22T04:35:13;29.25;;;18.13;;
24157;SDS011;12316;50.904;4.200;2024-03-22T04:37:39;31.65;;;19.40;;
24157;SDS011;12316;50.904;4.200;2024-03-22T04:40:05;30.77;;;19.90;;
24157;SDS011;12316;50.904;4.200;2024-03-22T04:42:32;33.40;;;19.60;;
24157;SDS011;12316;50.904;4.200;2024-03-22T04:44:57;36.55;;;20.67;;
24157;SDS011;12316;50.904;4.200;2024-03-22T04:47:23;36.05;;;21.45;;
24157;SDS011;12316;50.904;4.200;2024-03-22T04:49:49;35.92;;;22.10;;
24157;SDS011;12316;50.904;4.200;2024-03-22T04:52:15;35.50;;;22.55;;
24157;SDS011;12316;50.904;4.200;2024-03-22T04:54:40;35.30;;;22.30;;
24157;SDS011;12316;50.904;4.200;2024-03-22T04:57:06;37.78;;;23.85;;
24157;SDS011;12316;50.904;4.200;2024-03-22T04:59:32;36.30;;;22.73;;
24157;SDS011;12316;50.904;4.200;2024-03-22T05:01:57;37.05;;;22.25;;
24157;SDS011;12316;50.904;4.200;2024-03-22T05:04:23;33.60;;;21.80;;
24157;SDS011;12316;50.904;4.200;2024-03-22T05:06:49;33.60;;;21.27;;
24157;SDS011;12316;50.904;4.200;2024-03-22T05:09:15;32.47;;;21.02;;
24157;SDS011;12316;50.904;4.200;2024-03-22T05:11:41;34.35;;;22.20;;
24157;SDS011;12316;50.904;4.200;2024-03-22T05:14:07;35.00;;;22.10;;
24157;SDS011;12316;50.904;4.200;2024-03-22T05:16:32;33.85;;;22.23;;
24157;SDS011;12316;50.904;4.200;2024-03-22T05:18:58;30.40;;;21.35;;
24157;SDS011;12316;50.904;4.200;2024-03-22T05:21:24;30.90;;;20.90;;
24157;SDS011;12316;50.904;4.200;2024-03-22T05:23:50;30.45;;;20.33;;
24157;SDS011;12316;50.904;4.200;2024-03-22T05:26:15;31.95;;;20.85;;
24157;SDS011;12316;50.904;4.200;2024-03-22T05:28:43;29.77;;;20.83;;
24157;SDS011;12316;50.904;4.200;2024-03-22T05:31:09;29.00;;;19.98;;
24157;SDS011;12316;50.904;4.200;2024-03-22T05:33:34;32.47;;;20.73;;
24157;SDS011;12316;50.904;4.200;2024-03-22T05:36:01;31.67;;;20.60;;
24157;SDS011;12316;50.904;4.200;2024-03-22T05:38:27;33.10;;;20.30;;
24157;SDS011;12316;50.904;4.200;2024-03-22T05:40:53;30.88;;;21.60;;
24157;SDS011;12316;50.904;4.200;2024-03-22T05:43:19;30.88;;;20.33;;
24157;SDS011;12316;50.904;4.200;2024-03-22T05:45:45;30.88;;;20.40;;
24157;SDS011;12316;50.904;4.200;2024-03-22T05:48:10;28.73;;;19.95;;
24157;SDS011;12316;50.904;4.200;2024-03-22T05:50:36;31.10;;;19.55;;
24157;SDS011;12316;50.904;4.200;2024-03-22T05:53:02;30.50;;;19.48;;
24157;SDS011;12316;50.904;4.200;2024-03-22T05:55:28;27.38;;;18.48;;
24157;SDS011;12316;50.904;4.200;2024-03-22T05:57:56;28.92;;;17.85;;
24157;SDS011;12316;50.904;4.200;2024-03-22T06:00:22;26.48;;;17.75;;
24157;SDS011;12316;50.904;4.200;2024-03-22T06:02:47;28.10;;;18.73;;
24157;SDS011;12316;50.904;4.200;2024-03-22T06:05:13;26.85;;;17.77;;
24157;SDS011;12316;50.904;4.200;2024-03-22T06:07:39;26.90;;;17.35;;
24157;SDS011;12316;50.904;4.200;2024-03-22T06:10:07;25.48;;;16.45;;
24157;SDS011;12316;50.904;4.200;2024-03-22T06:12:34;26.02;;;16.75;;
24157;SDS011;12316;50.904;4.200;2024-03-22T06:15:01;21.92;;;15.75;;
24157;SDS011;12316;50.904;4.200;2024-03-22T06:17:31;20.88;;;14.32;;
24157;SDS011;12316;50.904;4.200;2024-03-22T06:19:59;19.60;;;14.23;;
24157;SDS011;12316;50.904;4.200;2024-03-22T06:22:25;21.35;;;14.48;;
24157;SDS011;12316;50.904;4.200;2024-03-22T06:24:51;18.85;;;13.10;;
24157;SDS011;12316;50.904;4.200;2024-03-22T06:27:18;19.90;;;13.00;;
24157;SDS011;12316;50.904;4.200;2024-03-22T06:29:44;20.55;;;13.65;;
24157;SDS011;12316;50.904;4.200;2024-03-22T06:32:09;18.63;;;13.23;;
24157;SDS011;12316;50.904;4.200;2024-03-22T06:34:35;20.00;;;13.90;;
24157;SDS011;12316;50.904;4.200;2024-03-22T06:37:01;20.58;;;13.57;;
24157;SDS011;12316;50.904;4.200;2024-03-22T06:39:27;19.48;;;13.57;;
24157;SDS011;12316;50.904;4.200;2024-03-22T06:41:53;18.70;;;13.10;;
24157;SDS011;12316;50.904;4.200;2024-03-22T06:44:19;21.48;;;13.50;;
24157;SDS011;12316;50.904;4.200;2024-03-22T06:46:44;20.65;;;13.27;;
24157;SDS011;12316;50.904;4.200;2024-03-22T06:49:10;21.15;;;13.52;;
24157;SDS011;12316;50.904;4.200;2024-03-22T06:51:36;19.48;;;13.70;;
24157;SDS011;12316;50.904;4.200;2024-03-22T06:54:01;20.95;;;13.38;;
24157;SDS011;12316;50.904;4.200;2024-03-22T06:56:27;18.27;;;13.30;;
24157;SDS011;12316;50.904;4.200;2024-03-22T06:58:53;18.55;;;13.38;;
24157;SDS011;12316;50.904;4.200;2024-03-22T07:01:18;16.75;;;11.63;;
24157;SDS011;12316;50.904;4.200;2024-03-22T07:03:46;18.92;;;12.55;;
24157;SDS011;12316;50.904;4.200;2024-03-22T07:06:13;17.85;;;12.90;;
24157;SDS011;12316;50.904;4.200;2024-03-22T07:08:39;17.98;;;12.50;;
24157;SDS011;12316;50.904;4.200;2024-03-22T07:11:05;17.20;;;12.18;;
24157;SDS011;12316;50.904;4.200;2024-03-22T07:13:31;17.58;;;12.07;;
24157;SDS011;12316;50.904;4.200;2024-03-22T07:15:57;17.17;;;11.57;;
24157;SDS011;12316;50.904;4.200;2024-03-22T07:18:23;17.15;;;11.95;;
24157;SDS011;12316;50.904;4.200;2024-03-22T07:20:49;16.38;;;11.52;;
24157;SDS011;12316;50.904;4.200;2024-03-22T07:23:15;14.73;;;11.00;;
24157;SDS011;12316;50.904;4.200;2024-03-22T07:25:40;14.77;;;10.68;;
24157;SDS011;12316;50.904;4.200;2024-03-22T07:30:39;14.48;;;9.80;;
24157;SDS011;12316;50.904;4.200;2024-03-22T07:33:05;15.98;;;10.65;;
24157;SDS011;12316;50.904;4.200;2024-03-22T07:35:30;15.55;;;10.57;;
24157;SDS011;12316;50.904;4.200;2024-03-22T07:37:56;16.10;;;10.35;;
24157;SDS011;12316;50.904;4.200;2024-03-22T07:40:22;14.15;;;10.32;;
24157;SDS011;12316;50.904;4.200;2024-03-22T07:42:48;14.40;;;10.02;;
24157;SDS011;12316;50.904;4.200;2024-03-22T07:45:14;13.60;;;10.38;;
24157;SDS011;12316;50.904;4.200;2024-03-22T07:47:40;15.00;;;10.32;;
24157;SDS011;12316;50.904;4.200;2024-03-22T07:50:07;16.70;;;10.80;;
24157;SDS011;12316;50.904;4.200;2024-03-22T07:52:33;16.08;;;10.27;;
24157;SDS011;12316;50.904;4.200;2024-03-22T07:54:59;13.60;;;10.40;;
24157;SDS011;12316;50.904;4.200;2024-03-22T07:57:27;12.77;;;10.13;;
24157;SDS011;12316;50.904;4.200;2024-03-22T07:59:56;14.68;;;10.75;;
24157;SDS011;12316;50.904;4.200;2024-03-22T08:02:22;15.27;;;10.63;;
24157;SDS011;12316;50.904;4.200;2024-03-22T08:04:48;13.80;;;9.82;;
24157;SDS011;12316;50.904;4.200;2024-03-22T08:07:14;13.07;;;9.88;;
24157;SDS011;12316;50.904;4.200;2024-03-22T08:09:41;14.02;;;10.30;;
24157;SDS011;12316;50.904;4.200;2024-03-22T08:12:07;16.55;;;10.20;;
24157;SDS011;12316;50.904;4.200;2024-03-22T08:14:33;13.32;;;10.02;;
24157;SDS011;12316;50.904;4.200;2024-03-22T08:16:59;15.45;;;9.88;;
24157;SDS011;12316;50.904;4.200;2024-03-22T08:19:24;15.00;;;10.93;;
24157;SDS011;12316;50.904;4.200;2024-03-22T08:21:50;13.20;;;10.30;;
24157;SDS011;12316;50.904;4.200;2024-03-22T08:24:16;15.75;;;11.00;;
24157;SDS011;12316;50.904;4.200;2024-03-22T08:26:43;15.50;;;10.73;;
24157;SDS011;12316;50.904;4.200;2024-03-22T08:29:12;14.80;;;10.70;;
24157;SDS011;12316;50.904;4.200;2024-03-22T08:31:39;14.77;;;10.73;;
24157;SDS011;12316;50.904;4.200;2024-03-22T08:34:05;15.15;;;10.73;;
24157;SDS011;12316;50.904;4.200;2024-03-22T08:36:32;13.48;;;10.40;;
24157;SDS011;12316;50.904;4.200;2024-03-22T08:38:58;16.08;;;11.00;;
24157;SDS011;12316;50.904;4.200;2024-03-22T08:41:24;16.98;;;11.18;;
24157;SDS011;12316;50.904;4.200;2024-03-22T08:43:52;15.35;;;11.55;;
24157;SDS011;12316;50.904;4.200;2024-03-22T08:46:17;15.00;;;10.20;;
24157;SDS011;12316;50.904;4.200;2024-03-22T08:48:44;18.58;;;11.52;;
24157;SDS011;12316;50.904;4.200;2024-03-22T08:51:10;16.45;;;11.18;;
24157;SDS011;12316;50.904;4.200;2024-03-22T08:53:35;16.73;;;11.68;;
24157;SDS011;12316;50.904;4.200;2024-03-22T08:56:01;17.92;;;11.20;;
24157;SDS011;12316;50.904;4.200;2024-03-22T08:58:28;17.00;;;11.40;;
24157;SDS011;12316;50.904;4.200;2024-03-22T09:00:54;17.08;;;11.48;;
24157;SDS011;12316;50.904;4.200;2024-03-22T09:03:20;18.65;;;12.00;;
24157;SDS011;12316;50.904;4.200;2024-03-22T09:05:46;17.65;;;11.95;;
24157;SDS011;12316;50.904;4.200;2024-03-22T09:08:12;20.88;;;11.80;;
24157;SDS011;12316;50.904;4.200;2024-03-22T09:10:38;18.67;;;11.65;;
24157;SDS011;12316;50.904;4.200;2024-03-22T09:13:03;17.88;;;12.02;;
24157;SDS011;12316;50.904;4.200;2024-03-22T09:15:29;17.90;;;11.55;;
24157;SDS011;12316;50.904;4.200;2024-03-22T09:17:56;18.85;;;11.60;;
24157;SDS011;12316;50.904;4.200;2024-03-22T09:20:21;19.25;;;12.07;;
24157;SDS011;12316;50.904;4.200;2024-03-22T09:22:48;20.75;;;11.77;;
24157;SDS011;12316;50.904;4.200;2024-03-22T09:25:14;22.05;;;11.95;;
24157;SDS011;12316;50.904;4.200;2024-03-22T09:27:40;18.17;;;12.30;;
24157;SDS011;12316;50.904;4.200;2024-03-22T09:30:05;16.10;;;11.20;;
24157;SDS011;12316;50.904;4.200;2024-03-22T09:32:32;17.75;;;11.77;;
24157;SDS011;12316;50.904;4.200;2024-03-22T09:34:58;16.25;;;10.98;;
24157;SDS011;12316;50.904;4.200;2024-03-22T09:37:23;17.27;;;12.00;;
24157;SDS011;12316;50.904;4.200;2024-03-22T09:39:49;16.88;;;11.40;;
24157;SDS011;12316;50.904;4.200;2024-03-22T09:42:17;16.52;;;10.95;;
24157;SDS011;12316;50.904;4.200;2024-03-22T09:44:47;16.92;;;12.10;;
24157;SDS011;12316;50.904;4.200;2024-03-22T09:47:14;17.27;;;11.68;;
24157;SDS011;12316;50.904;4.200;2024-03-22T09:49:41;18.42;;;11.43;;
24157;SDS011;12316;50.904;4.200;2024-03-22T09:52:11;18.02;;;11.23;;
24157;SDS011;12316;50.904;4.200;2024-03-22T09:54:40;15.98;;;11.40;;
24157;SDS011;12316;50.904;4.200;2024-03-22T09:57:07;16.95;;;11.05;;
24157;SDS011;12316;50.904;4.200;2024-03-22T09:59:45;16.30;;;10.23;;
24157;SDS011;12316;50.904;4.200;2024-03-22T10:02:12;15.27;;;10.63;;
24157;SDS011;12316;50.904;4.200;2024-03-22T10:04:39;16.55;;;11.38;;
24157;SDS011;12316;50.904;4.200;2024-03-22T10:07:08;20.92;;;11.52;;
24157;SDS011;12316;50.904;4.200;2024-03-22T10:09:38;14.07;;;10.52;;
24157;SDS011;12316;50.904;4.200;2024-03-22T10:12:05;15.77;;;10.00;;
24157;SDS011;12316;50.904;4.200;2024-03-22T10:14:31;16.55;;;10.32;;
24157;SDS011;12316;50.904;4.200;2024-03-22T10:16:58;15.75;;;10.43;;
24157;SDS011;12316;50.904;4.200;2024-03-22T10:19:24;13.38;;;10.07;;
24157;SDS011;12316;50.904;4.200;2024-03-22T10:22:02;17.70;;;10.13;;
24157;SDS011;12316;50.904;4.200;2024-03-22T10:24:28;14.98;;;9.77;;
24157;SDS011;12316;50.904;4.200;2024-03-22T10:26:55;16.25;;;10.10;;
24157;SDS011;12316;50.904;4.200;2024-03-22T10:29:21;16.33;;;10.70;;
24157;SDS011;12316;50.904;4.200;2024-03-22T10:31:48;19.75;;;9.82;;
24157;SDS011;12316;50.904;4.200;2024-03-22T10:34:16;16.15;;;9.60;;
24157;SDS011;12316;50.904;4.200;2024-03-22T10:36:43;15.32;;;9.52;;
24157;SDS011;12316;50.904;4.200;2024-03-22T10:39:10;17.33;;;9.30;;
24157;SDS011;12316;50.904;4.200;2024-03-22T10:41:40;15.90;;;8.93;;
24157;SDS011;12316;50.904;4.200;2024-03-22T10:44:06;16.02;;;9.27;;
24157;SDS011;12316;50.904;4.200;2024-03-22T10:46:33;13.75;;;9.20;;
24157;SDS011;12316;50.904;4.200;2024-03-22T10:49:00;13.45;;;9.35;;
24157;SDS011;12316;50.904;4.200;2024-03-22T10:51:30;13.82;;;9.38;;
24157;SDS011;12316;50.904;4.200;2024-03-22T10:53:59;17.90;;;9.68;;
24157;SDS011;12316;50.904;4.200;2024-03-22T10:56:26;14.35;;;9.77;;
24157;SDS011;12316;50.904;4.200;2024-03-22T10:58:52;14.80;;;9.00;;
24157;SDS011;12316;50.904;4.200;2024-03-22T11:01:22;14.57;;;9.30;;
24157;SDS011;12316;50.904;4.200;2024-03-22T11:03:48;14.85;;;9.32;;
24157;SDS011;12316;50.904;4.200;2024-03-22T11:06:17;15.73;;;9.35;;
24157;SDS011;12316;50.904;4.200;2024-03-22T11:08:49;14.52;;;8.57;;
24157;SDS011;12316;50.904;4.200;2024-03-22T11:11:17;16.50;;;9.20;;
24157;SDS011;12316;50.904;4.200;2024-03-22T11:13:46;14.48;;;9.63;;
24157;SDS011;12316;50.904;4.200;2024-03-22T11:16:15;15.82;;;8.95;;
24157;SDS011;12316;50.904;4.200;2024-03-22T11:18:42;17.38;;;9.80;;
24157;SDS011;12316;50.904;4.200;2024-03-22T11:21:07;17.15;;;9.63;;
24157;SDS011;12316;50.904;4.200;2024-03-22T11:23:36;18.85;;;10.30;;
24157;SDS011;12316;50.904;4.200;2024-03-22T11:26:03;15.93;;;10.10;;
24157;SDS011;12316;50.904;4.200;2024-03-22T11:28:30;16.38;;;10.70;;
24157;SDS011;12316;50.904;4.200;2024-03-22T11:30:56;15.60;;;9.82;;
24157;SDS011;12316;50.904;4.200;2024-03-22T11:33:21;17.58;;;9.50;;
24157;SDS011;12316;50.904;4.200;2024-03-22T11:35:47;14.95;;;9.10;;
24157;SDS011;12316;50.904;4.200;2024-03-22T11:38:15;16.85;;;9.73;;
24157;SDS011;12316;50.904;4.200;2024-03-22T11:40:42;12.85;;;8.82;;
24157;SDS011;12316;50.904;4.200;2024-03-22T11:43:09;13.93;;;8.80;;
24157;SDS011;12316;50.904;4.200;2024-03-22T11:45:36;16.90;;;8.82;;
24157;SDS011;12316;50.904;4.200;2024-03-22T11:48:03;16.48;;;8.70;;
24157;SDS011;12316;50.904;4.200;2024-03-22T11:50:30;14.68;;;8.15;;
24157;SDS011;12316;50.904;4.200;2024-03-22T11:52:57;12.75;;;7.65;;
24157;SDS011;12316;50.904;4.200;2024-03-22T11:55:26;16.23;;;8.93;;
24157;SDS011;12316;50.904;4.200;2024-03-22T11:57:56;14.13;;;8.50;;
24157;SDS011;12316;50.904;4.200;2024-03-22T12:00:23;12.23;;;7.72;;
24157;SDS011;12316;50.904;4.200;2024-03-22T12:02:50;17.75;;;7.97;;
24157;SDS011;12316;50.904;4.200;2024-03-22T12:05:17;14.77;;;7.25;;
24157;SDS011;12316;50.904;4.200;2024-03-22T12:07:43;13.43;;;7.15;;
24157;SDS011;12316;50.904;4.200;2024-03-22T12:10:09;15.25;;;7.60;;
24157;SDS011;12316;50.904;4.200;2024-03-22T12:12:35;15.95;;;6.97;;
24157;SDS011;12316;50.904;4.200;2024-03-22T12:15:02;16.58;;;7.70;;
24157;SDS011;12316;50.904;4.200;2024-03-22T12:17:28;14.95;;;7.55;;
24157;SDS011;12316;50.904;4.200;2024-03-22T12:19:55;11.98;;;6.93;;
24157;SDS011;12316;50.904;4.200;2024-03-22T12:22:21;12.00;;;7.20;;
24157;SDS011;12316;50.904;4.200;2024-03-22T12:24:47;12.68;;;7.05;;
24157;SDS011;12316;50.904;4.200;2024-03-22T12:27:13;12.88;;;7.28;;
24157;SDS011;12316;50.904;4.200;2024-03-22T12:29:39;14.40;;;7.82;;
24157;SDS011;12316;50.904;4.200;2024-03-22T12:32:05;12.48;;;7.70;;
24157;SDS011;12316;50.904;4.200;2024-03-22T12:34:33;13.55;;;7.60;;
24157;SDS011;12316;50.904;4.200;2024-03-22T12:36:59;12.75;;;7.78;;
24157;SDS011;12316;50.904;4.200;2024-03-22T12:39:25;15.18;;;8.07;;
24157;SDS011;12316;50.904;4.200;2024-03-22T12:41:51;15.02;;;7.93;;
24157;SDS011;12316;50.904;4.200;2024-03-22T12:44:17;11.82;;;6.90;;
24157;SDS011;12316;50.904;4.200;2024-03-22T12:46:43;12.10;;;7.20;;
24157;SDS011;12316;50.904;4.200;2024-03-22T12:49:10;19.83;;;7.55;;
24157;SDS011;12316;50.904;4.200;2024-03-22T12:51:36;16.45;;;7.97;;
24157;SDS011;12316;50.904;4.200;2024-03-22T12:54:03;14.75;;;7.75;;
24157;SDS011;12316;50.904;4.200;2024-03-22T12:56:32;14.70;;;7.95;;
24157;SDS011;12316;50.904;4.200;2024-03-22T12:58:58;18.65;;;7.95;;
24157;SDS011;12316;50.904;4.200;2024-03-22T13:01:24;13.68;;;7.60;;
24157;SDS011;12316;50.904;4.200;2024-03-22T13:03:50;14.27;;;7.28;;
24157;SDS011;12316;50.904;4.200;2024-03-22T13:06:16;13.52;;;7.30;;
24157;SDS011;12316;50.904;4.200;2024-03-22T13:08:42;12.80;;;7.43;;
24157;SDS011;12316;50.904;4.200;2024-03-22T13:11:08;13.77;;;6.90;;
24157;SDS011;12316;50.904;4.200;2024-03-22T13:13:36;13.18;;;7.10;;
24157;SDS011;12316;50.904;4.200;2024-03-22T13:16:02;11.35;;;6.95;;
24157;SDS011;12316;50.904;4.200;2024-03-22T13:18:29;11.85;;;7.63;;
24157;SDS011;12316;50.904;4.200;2024-03-22T13:20:55;13.25;;;7.35;;
24157;SDS011;12316;50.904;4.200;2024-03-22T13:23:20;13.90;;;7.53;;
24157;SDS011;12316;50.904;4.200;2024-03-22T13:25:46;13.88;;;7.63;;
24157;SDS011;12316;50.904;4.200;2024-03-22T13:28:12;15.48;;;7.63;;
24157;SDS011;12316;50.904;4.200;2024-03-22T13:30:38;12.85;;;7.60;;
24157;SDS011;12316;50.904;4.200;2024-03-22T13:33:05;12.52;;;7.68;;
24157;SDS011;12316;50.904;4.200;2024-03-22T13:35:33;19.35;;;8.70;;
24157;SDS011;12316;50.904;4.200;2024-03-22T13:37:59;14.27;;;8.13;;
24157;SDS011;12316;50.904;4.200;2024-03-22T13:40:26;14.10;;;8.50;;
24157;SDS011;12316;50.904;4.200;2024-03-22T13:42:55;18.77;;;8.32;;
24157;SDS011;12316;50.904;4.200;2024-03-22T13:45:20;13.10;;;8.35;;
24157;SDS011;12316;50.904;4.200;2024-03-22T13:47:46;19.35;;;8.85;;
24157;SDS011;12316;50.904;4.200;2024-03-22T13:50:13;14.88;;;8.65;;
24157;SDS011;12316;50.904;4.200;2024-03-22T13:52:38;13.13;;;8.70;;
24157;SDS011;12316;50.904;4.200;2024-03-22T13:55:04;16.30;;;8.55;;
24157;SDS011;12316;50.904;4.200;2024-03-22T13:57:31;18.45;;;8.40;;
24157;SDS011;12316;50.904;4.200;2024-03-22T13:59:57;15.20;;;8.32;;
24157;SDS011;12316;50.904;4.200;2024-03-22T14:02:23;11.77;;;8.43;;
24157;SDS011;12316;50.904;4.200;2024-03-22T14:04:49;16.05;;;8.43;;
24157;SDS011;12316;50.904;4.200;2024-03-22T14:07:15;14.95;;;8.38;;
24157;SDS011;12316;50.904;4.200;2024-03-22T14:09:41;13.18;;;8.50;;
24157;SDS011;12316;50.904;4.200;2024-03-22T14:12:08;11.05;;;7.57;;
24157;SDS011;12316;50.904;4.200;2024-03-22T14:14:34;13.38;;;8.20;;
24157;SDS011;12316;50.904;4.200;2024-03-22T14:17:00;14.70;;;8.20;;
24157;SDS011;12316;50.904;4.200;2024-03-22T14:19:27;10.73;;;7.38;;
24157;SDS011;12316;50.904;4.200;2024-03-22T14:21:52;13.38;;;8.00;;
24157;SDS011;12316;50.904;4.200;2024-03-22T14:24:18;11.25;;;8.23;;
24157;SDS011;12316;50.904;4.200;2024-03-22T14:26:44;12.52;;;8.63;;
24157;SDS011;12316;50.904;4.200;2024-03-22T14:29:10;12.15;;;8.48;;
24157;SDS011;12316;50.904;4.200;2024-03-22T14:31:39;12.07;;;8.68;;